Time;durP1;ratioP1;P1;durP2;ratioP2;P2;SDS_P1;SDS_P2;PMS_P1;PMS_P2;Temp;Humidity;BMP_temperature;BMP_pressure;BME280_temperature;BME280_humidity;BME280_pressure;Samples;Min_cycle;Max_cycle;Signal;HPM_P1;HPM_P2
2021/09/13 00:00:55;;;;;;;6.57;4.50;;;;;;;;;;5048197;28;20513;-57
2021/09/13 00:03:20;;;;;;;7.78;4.22;;;;;;;;;;5046672;28;20064;-57
2021/09/13 00:05:46;;;;;;;8.38;4.38;;;;;;;;;;5057624;28;20495;-57
2021/09/13 00:08:12;;;;;;;6.75;4.13;;;;;;;;;;5047497;28;20028;-57
2021/09/13 00:10:37;;;;;;;7.95;4.10;;;;;;;;;;5048231;28;20020;-56
2021/09/13 00:13:03;;;;;;;4.93;3.90;;;;;;;;;;5039657;28;20038;-56
2021/09/13 00:15:28;;;;;;;6.53;4.20;;;;;;;;;;5042126;28;20025;-56
2021/09/13 00:17:54;;;;;;;7.65;4.55;;;;;;;;;;5044892;28;20194;-57
2021/09/13 00:20:19;;;;;;;7.57;4.47;;;;;;;;;;5046987;28;20036;-56
2021/09/13 00:22:45;;;;;;;7.28;4.15;;;;;;;;;;5043871;28;20041;-57
2021/09/13 00:25:10;;;;;;;5.25;4.22;;;;;;;;;;5050788;28;20029;-57
2021/09/13 00:27:35;;;;;;;7.65;4.10;;;;;;;;;;5051375;28;20032;-56
2021/09/13 00:30:01;;;;;;;6.97;4.30;;;;;;;;;;5047533;28;20033;-56
2021/09/13 00:32:26;;;;;;;6.93;4.40;;;;;;;;;;5051241;28;20406;-56
2021/09/13 00:34:52;;;;;;;8.02;4.63;;;;;;;;;;5047199;28;20510;-56
2021/09/13 00:37:17;;;;;;;9.10;4.88;;;;;;;;;;5050877;28;20075;-57
2021/09/13 00:39:43;;;;;;;5.38;4.22;;;;;;;;;;5049272;28;20101;-56
2021/09/13 00:42:08;;;;;;;9.82;4.68;;;;;;;;;;5045794;28;20135;-57
2021/09/13 00:44:34;;;;;;;7.72;4.45;;;;;;;;;;5043876;28;20410;-56
2021/09/13 00:47:00;;;;;;;8.20;4.88;;;;;;;;;;5048922;28;20533;-56
2021/09/13 00:49:26;;;;;;;7.13;4.82;;;;;;;;;;5047999;28;20911;-56
2021/09/13 00:51:52;;;;;;;7.35;4.80;;;;;;;;;;5049043;28;20037;-56
2021/09/13 00:54:18;;;;;;;7.88;4.60;;;;;;;;;;5046875;28;20060;-57
2021/09/13 00:56:44;;;;;;;8.38;4.75;;;;;;;;;;5058403;28;20680;-56
2021/09/13 00:59:13;;;;;;;7.18;4.70;;;;;;;;;;5051847;28;20104;-57
2021/09/13 01:01:39;;;;;;;;;;;;;;;;;;5051296;28;20025;-56
2021/09/13 01:04:04;;;;;;;6.90;4.45;;;;;;;;;;5047923;28;19927;-57
2021/09/13 01:06:30;;;;;;;10.27;4.97;;;;;;;;;;5051255;28;20037;-57
2021/09/13 01:08:56;;;;;;;9.75;4.60;;;;;;;;;;5055159;28;20025;-57
2021/09/13 01:11:22;;;;;;;7.75;4.72;;;;;;;;;;5054378;28;20021;-56
2021/09/13 01:13:47;;;;;;;6.35;4.50;;;;;;;;;;5050904;28;20020;-57
2021/09/13 01:16:13;;;;;;;8.02;4.53;;;;;;;;;;5050139;28;20507;-56
2021/09/13 01:18:38;;;;;;;8.27;4.90;;;;;;;;;;5050164;28;20695;-56
2021/09/13 01:21:04;;;;;;;8.88;5.38;;;;;;;;;;5052733;28;20032;-57
2021/09/13 01:23:32;;;;;;;7.53;4.32;;;;;;;;;;5049909;28;20025;-56
2021/09/13 01:25:59;;;;;;;6.32;4.32;;;;;;;;;;5044073;28;20479;-57
2021/09/13 01:28:25;;;;;;;9.02;5.03;;;;;;;;;;5051779;28;20036;-56
2021/09/13 01:30:52;;;;;;;9.55;4.95;;;;;;;;;;5053922;28;20031;-56
2021/09/13 01:33:18;;;;;;;6.18;4.75;;;;;;;;;;5052849;28;20025;-57
2021/09/13 01:35:43;;;;;;;7.70;4.85;;;;;;;;;;5053297;28;20401;-56
2021/09/13 01:38:09;;;;;;;8.95;4.75;;;;;;;;;;5051148;28;20499;-57
2021/09/13 01:40:34;;;;;;;6.78;5.00;;;;;;;;;;5052618;28;20040;-57
2021/09/13 01:43:01;;;;;;;6.57;4.43;;;;;;;;;;5058494;28;20490;-55
2021/09/13 01:45:27;;;;;;;8.40;5.20;;;;;;;;;;5049830;28;20103;-57
2021/09/13 01:47:54;;;;;;;9.35;5.30;;;;;;;;;;5050766;28;20521;-57
2021/09/13 01:50:19;;;;;;;6.75;5.22;;;;;;;;;;5049658;28;20021;-57
2021/09/13 01:52:45;;;;;;;8.32;5.68;;;;;;;;;;5055917;28;20051;-57
2021/09/13 01:55:11;;;;;;;11.82;5.72;;;;;;;;;;5055332;28;20100;-57
2021/09/13 01:57:37;;;;;;;7.90;5.25;;;;;;;;;;5062361;28;20043;-57
2021/09/13 02:00:04;;;;;;;7.93;5.28;;;;;;;;;;5061263;28;20103;-57
2021/09/13 02:02:30;;;;;;;9.10;5.40;;;;;;;;;;5048189;28;20021;-57
2021/09/13 02:04:55;;;;;;;6.75;4.80;;;;;;;;;;5048815;28;20086;-57
2021/09/13 02:07:21;;;;;;;9.43;5.28;;;;;;;;;;5052278;28;20115;-57
2021/09/13 02:09:47;;;;;;;14.00;6.53;;;;;;;;;;5055750;28;20028;-57
2021/09/13 02:12:13;;;;;;;8.27;5.82;;;;;;;;;;5047858;28;20029;-58
2021/09/13 02:14:39;;;;;;;7.95;5.65;;;;;;;;;;5031038;28;20032;-57
2021/09/13 02:17:04;;;;;;;14.10;5.35;;;;;;;;;;5054451;28;20029;-57
2021/09/13 02:19:30;;;;;;;8.90;4.97;;;;;;;;;;5052423;28;20024;-57
2021/09/13 02:21:55;;;;;;;8.55;5.30;;;;;;;;;;5050543;28;20110;-57
2021/09/13 02:24:20;;;;;;;9.05;5.35;;;;;;;;;;5047248;28;20112;-57
2021/09/13 02:26:46;;;;;;;8.43;5.40;;;;;;;;;;5050277;28;20021;-57
2021/09/13 02:29:11;;;;;;;8.65;5.07;;;;;;;;;;5053327;28;20525;-57
2021/09/13 02:31:37;;;;;;;8.23;4.90;;;;;;;;;;5051841;28;20052;-57
2021/09/13 02:34:02;;;;;;;7.78;5.05;;;;;;;;;;5048206;28;20029;-57
2021/09/13 02:36:28;;;;;;;6.70;4.70;;;;;;;;;;5052460;28;20494;-56
2021/09/13 02:38:53;;;;;;;12.23;5.60;;;;;;;;;;5054505;28;20135;-56
2021/09/13 02:41:18;;;;;;;10.13;5.03;;;;;;;;;;5053080;28;20068;-57
2021/09/13 02:43:44;;;;;;;7.60;5.25;;;;;;;;;;5049796;28;20562;-56
2021/09/13 02:46:09;;;;;;;9.75;5.70;;;;;;;;;;5048755;28;20035;-57
2021/09/13 02:48:34;;;;;;;9.55;5.40;;;;;;;;;;5049415;28;20107;-57
2021/09/13 02:51:00;;;;;;;10.80;5.00;;;;;;;;;;5056975;28;20025;-57
2021/09/13 02:53:25;;;;;;;12.48;5.78;;;;;;;;;;5051878;28;20408;-56
2021/09/13 02:55:51;;;;;;;6.53;4.57;;;;;;;;;;5051703;28;20483;-56
2021/09/13 02:58:16;;;;;;;7.03;5.32;;;;;;;;;;5053222;28;20107;-57
2021/09/13 03:00:41;;;;;;;7.45;5.20;;;;;;;;;;5054590;28;20549;-56
2021/09/13 03:03:07;;;;;;;8.38;5.18;;;;;;;;;;5056099;28;20035;-57
2021/09/13 03:05:32;;;;;;;7.45;5.30;;;;;;;;;;5050756;28;20051;-57
2021/09/13 03:07:58;;;;;;;6.78;5.07;;;;;;;;;;5047331;28;20460;-56
2021/09/13 03:10:23;;;;;;;10.43;5.40;;;;;;;;;;5048688;28;20025;-57
2021/09/13 03:12:49;;;;;;;10.95;5.57;;;;;;;;;;5049727;28;20028;-56
2021/09/13 03:15:14;;;;;;;8.75;5.55;;;;;;;;;;5045418;28;20139;-55
2021/09/13 03:17:40;;;;;;;11.95;6.20;;;;;;;;;;5047484;28;20064;-56
2021/09/13 03:20:06;;;;;;;7.63;5.72;;;;;;;;;;5047404;28;20029;-56
2021/09/13 03:22:31;;;;;;;9.82;6.13;;;;;;;;;;5050765;28;20048;-57
2021/09/13 03:24:57;;;;;;;10.93;6.28;;;;;;;;;;5052526;28;20028;-57
2021/09/13 03:27:23;;;;;;;10.02;5.68;;;;;;;;;;5047200;28;20033;-57
2021/09/13 03:29:48;;;;;;;9.00;6.13;;;;;;;;;;5047718;28;20024;-57
2021/09/13 03:32:13;;;;;;;11.80;6.30;;;;;;;;;;5050324;28;20061;-57
2021/09/13 03:34:39;;;;;;;9.75;6.45;;;;;;;;;;5050995;28;20028;-57
2021/09/13 03:37:04;;;;;;;13.10;6.10;;;;;;;;;;5051070;28;20040;-58
2021/09/13 03:39:31;;;;;;;10.70;5.75;;;;;;;;;;5047175;28;20312;-57
2021/09/13 03:41:57;;;;;;;10.57;6.60;;;;;;;;;;5048963;28;20559;-57
2021/09/13 03:44:22;;;;;;;9.43;6.38;;;;;;;;;;5051459;28;20116;-57
2021/09/13 03:46:48;;;;;;;11.40;6.03;;;;;;;;;;5048214;28;20106;-57
2021/09/13 03:49:13;;;;;;;9.27;6.60;;;;;;;;;;5045878;28;20020;-57
2021/09/13 03:51:39;;;;;;;12.98;6.60;;;;;;;;;;5049719;28;20113;-57
2021/09/13 03:54:04;;;;;;;18.30;10.63;;;;;;;;;;5048391;28;20131;-57
2021/09/13 03:56:30;;;;;;;14.85;7.72;;;;;;;;;;5053578;28;20037;-57
2021/09/13 03:58:55;;;;;;;11.25;6.90;;;;;;;;;;5050084;28;20035;-57
2021/09/13 04:01:21;;;;;;;10.60;6.35;;;;;;;;;;5049988;28;20452;-57
2021/09/13 04:03:48;;;;;;;12.68;6.35;;;;;;;;;;5051610;28;20131;-57
2021/09/13 04:14:18;;;;;;;18.55;8.85;;;;;;;;;;5047680;28;20036;-57
2021/09/13 04:16:44;;;;;;;18.40;8.20;;;;;;;;;;5047905;28;20029;-57
2021/09/13 04:19:09;;;;;;;11.43;7.57;;;;;;;;;;5046437;28;20488;-57
2021/09/13 04:21:35;;;;;;;10.57;5.85;;;;;;;;;;5046077;28;20037;-57
2021/09/13 04:24:00;;;;;;;8.60;6.20;;;;;;;;;;5052409;28;20028;-56
2021/09/13 04:26:26;;;;;;;8.82;5.93;;;;;;;;;;5050312;28;20055;-57
2021/09/13 04:28:51;;;;;;;13.02;7.13;;;;;;;;;;5048916;28;20398;-56
2021/09/13 04:31:17;;;;;;;10.55;6.55;;;;;;;;;;5050327;28;20021;-57
2021/09/13 04:33:42;;;;;;;8.85;6.28;;;;;;;;;;5054030;28;20033;-56
2021/09/13 04:36:08;;;;;;;10.15;6.65;;;;;;;;;;5039350;28;20327;-57
2021/09/13 04:38:33;;;;;;;9.95;6.40;;;;;;;;;;5048060;28;20467;-56
2021/09/13 04:40:59;;;;;;;8.60;6.72;;;;;;;;;;5046147;28;20289;-56
2021/09/13 04:43:24;;;;;;;10.25;6.82;;;;;;;;;;5049649;28;20484;-56
2021/09/13 04:45:50;;;;;;;10.35;6.65;;;;;;;;;;5047044;28;20028;-56
2021/09/13 04:48:15;;;;;;;14.30;6.57;;;;;;;;;;5050369;28;20032;-57
2021/09/13 04:50:40;;;;;;;15.30;8.23;;;;;;;;;;5044673;28;20021;-56
2021/09/13 04:53:06;;;;;;;11.90;6.55;;;;;;;;;;5050642;28;20021;-57
2021/09/13 04:55:31;;;;;;;12.95;7.45;;;;;;;;;;5044072;28;20029;-56
2021/09/13 04:57:57;;;;;;;14.02;7.35;;;;;;;;;;5050936;28;20028;-56
2021/09/13 05:00:23;;;;;;;12.52;7.45;;;;;;;;;;5048167;28;20439;-57
2021/09/13 05:02:48;;;;;;;11.73;7.13;;;;;;;;;;5052985;28;20479;-56
2021/09/13 05:05:14;;;;;;;12.88;5.30;;;;;;;;;;5055023;28;20070;-53
2021/09/13 05:07:39;;;;;;;10.00;5.15;;;;;;;;;;5052334;28;20029;-56
2021/09/13 05:10:05;;;;;;;10.35;6.70;;;;;;;;;;5044080;28;20032;-56
2021/09/13 05:12:30;;;;;;;22.65;12.07;;;;;;;;;;5042413;28;20052;-57
2021/09/13 05:14:56;;;;;;;15.73;8.02;;;;;;;;;;5048728;28;20029;-56
2021/09/13 05:17:21;;;;;;;11.13;6.72;;;;;;;;;;5048952;28;20356;-57
2021/09/13 05:19:47;;;;;;;9.07;6.13;;;;;;;;;;5048357;28;20106;-56
2021/09/13 05:22:12;;;;;;;10.68;6.30;;;;;;;;;;5047590;28;20025;-56
2021/09/13 05:24:37;;;;;;;9.48;5.93;;;;;;;;;;5046480;28;20100;-56
2021/09/13 05:27:03;;;;;;;15.38;6.75;;;;;;;;;;5051768;28;20161;-56
2021/09/13 05:29:28;;;;;;;19.15;10.48;;;;;;;;;;5050707;28;20017;-56
2021/09/13 05:31:54;;;;;;;15.45;8.40;;;;;;;;;;5048518;28;20483;-56
2021/09/13 05:34:19;;;;;;;11.43;6.78;;;;;;;;;;5042372;28;20068;-56
2021/09/13 05:36:45;;;;;;;9.20;6.57;;;;;;;;;;5049531;28;20021;-56
2021/09/13 05:39:10;;;;;;;18.65;9.35;;;;;;;;;;5052304;28;20104;-57
2021/09/13 05:41:36;;;;;;;16.02;9.10;;;;;;;;;;5048425;28;20454;-56
2021/09/13 05:44:01;;;;;;;14.05;6.88;;;;;;;;;;5047310;28;20330;-56
2021/09/13 05:46:27;;;;;;;8.75;5.50;;;;;;;;;;5047891;28;20078;-56
2021/09/13 05:48:52;;;;;;;10.65;5.55;;;;;;;;;;5052266;28;20513;-56
2021/09/13 05:51:17;;;;;;;9.40;5.13;;;;;;;;;;5049316;28;20116;-56
2021/09/13 05:53:43;;;;;;;8.50;5.80;;;;;;;;;;5047706;28;20029;-56
2021/09/13 05:56:08;;;;;;;9.32;5.80;;;;;;;;;;5050130;28;20430;-57
2021/09/13 05:58:34;;;;;;;7.57;5.28;;;;;;;;;;5048648;28;20059;-56
2021/09/13 06:01:00;;;;;;;10.60;5.35;;;;;;;;;;5052405;28;20028;-55
2021/09/13 06:03:25;;;;;;;10.73;5.88;;;;;;;;;;5046137;28;20024;-56
2021/09/13 06:05:51;;;;;;;11.45;7.28;;;;;;;;;;5050391;28;20403;-55
2021/09/13 06:08:16;;;;;;;11.35;8.20;;;;;;;;;;5048092;28;20112;-56
2021/09/13 06:10:41;;;;;;;12.52;7.80;;;;;;;;;;5053832;28;20064;-55
2021/09/13 06:13:11;;;;;;;14.30;8.05;;;;;;;;;;5050395;28;20123;-57
2021/09/13 06:15:37;;;;;;;;;;;;;;;;;;5051686;28;20473;-55
2021/09/13 06:18:02;;;;;;;15.27;8.25;;;;;;;;;;5047846;28;19912;-56
2021/09/13 06:20:28;;;;;;;13.15;8.38;;;;;;;;;;5050213;28;20039;-56
2021/09/13 06:22:53;;;;;;;13.57;7.95;;;;;;;;;;5045998;28;20067;-55
2021/09/13 06:25:19;;;;;;;16.75;8.38;;;;;;;;;;5051617;28;20524;-55
2021/09/13 06:27:44;;;;;;;13.18;8.52;;;;;;;;;;5051151;28;20372;-55
2021/09/13 06:30:10;;;;;;;13.00;8.45;;;;;;;;;;5048655;28;20484;-56
2021/09/13 06:32:35;;;;;;;17.63;8.63;;;;;;;;;;5049085;28;20037;-55
2021/09/13 06:35:01;;;;;;;15.32;8.75;;;;;;;;;;5048462;28;20029;-55
2021/09/13 06:37:27;;;;;;;16.73;9.55;;;;;;;;;;5051463;28;20028;-56
2021/09/13 06:39:57;;;;;;;16.35;8.68;;;;;;;;;;5048200;28;20033;-56
2021/09/13 06:42:22;;;;;;;15.02;8.75;;;;;;;;;;5048708;28;20548;-56
2021/09/13 06:44:49;;;;;;;15.60;8.90;;;;;;;;;;5051276;28;20028;-56
2021/09/13 06:47:23;;;;;;;16.27;8.75;;;;;;;;;;5052423;28;20073;-56
2021/09/13 06:49:49;;;;;;;15.40;8.43;;;;;;;;;;5047962;28;20025;-56
2021/09/13 06:52:15;;;;;;;17.45;9.30;;;;;;;;;;5047906;28;20025;-54
2021/09/13 06:54:40;;;;;;;21.35;8.40;;;;;;;;;;5043119;28;20314;-57
2021/09/13 06:57:06;;;;;;;15.93;9.82;;;;;;;;;;5050081;28;20025;-57
2021/09/13 06:59:32;;;;;;;12.55;8.93;;;;;;;;;;5054168;28;20044;-55
2021/09/13 07:01:57;;;;;;;12.02;8.40;;;;;;;;;;5050956;28;20029;-56
2021/09/13 07:04:24;;;;;;;12.73;8.52;;;;;;;;;;5049001;28;20025;-56
2021/09/13 07:06:52;;;;;;;17.45;8.77;;;;;;;;;;5052752;28;20033;-56
2021/09/13 07:09:18;;;;;;;14.90;8.15;;;;;;;;;;5047392;28;20034;-57
2021/09/13 07:11:44;;;;;;;14.52;8.55;;;;;;;;;;5051415;28;20127;-57
2021/09/13 07:14:10;;;;;;;13.60;8.02;;;;;;;;;;5046398;28;20029;-56
2021/09/13 07:16:35;;;;;;;16.77;9.55;;;;;;;;;;5049912;28;20024;-57
2021/09/13 07:19:01;;;;;;;15.00;8.50;;;;;;;;;;5051982;28;20140;-57
2021/09/13 07:21:27;;;;;;;26.00;13.05;;;;;;;;;;5049425;28;20103;-57
2021/09/13 07:23:52;;;;;;;74.30;36.60;;;;;;;;;;5048666;28;20393;-56
2021/09/13 07:26:18;;;;;;;41.38;23.27;;;;;;;;;;5053954;28;20086;-57
2021/09/13 07:28:43;;;;;;;31.45;16.23;;;;;;;;;;5048474;28;20331;-57
2021/09/13 07:31:08;;;;;;;27.80;16.45;;;;;;;;;;5052567;28;20025;-57
2021/09/13 07:33:34;;;;;;;22.17;13.40;;;;;;;;;;5045946;28;20036;-57
2021/09/13 07:35:59;;;;;;;18.83;11.95;;;;;;;;;;5048267;28;20028;-57
2021/09/13 07:38:25;;;;;;;16.77;10.52;;;;;;;;;;5047102;28;20024;-57
2021/09/13 07:40:51;;;;;;;20.48;11.20;;;;;;;;;;5050982;28;20398;-57
2021/09/13 07:43:16;;;;;;;14.73;10.25;;;;;;;;;;5050953;28;20036;-57
2021/09/13 07:45:41;;;;;;;15.63;8.63;;;;;;;;;;5046425;28;20330;-56
2021/09/13 07:48:07;;;;;;;14.13;8.40;;;;;;;;;;5043033;28;20386;-56
2021/09/13 07:50:33;;;;;;;13.35;7.63;;;;;;;;;;5049497;28;20073;-56
2021/09/13 07:52:58;;;;;;;12.07;7.47;;;;;;;;;;5046387;28;20035;-56
2021/09/13 07:55:24;;;;;;;14.40;7.95;;;;;;;;;;5045672;28;20025;-55
2021/09/13 07:57:49;;;;;;;12.90;7.88;;;;;;;;;;5047132;28;20056;-57
2021/09/13 08:00:15;;;;;;;13.80;8.50;;;;;;;;;;5050514;28;20021;-57
2021/09/13 08:02:41;;;;;;;13.52;7.88;;;;;;;;;;5046280;28;20065;-57
2021/09/13 08:05:08;;;;;;;11.90;7.40;;;;;;;;;;5044741;28;20032;-58
2021/09/13 08:07:33;;;;;;;15.02;7.43;;;;;;;;;;5043531;28;20041;-57
2021/09/13 08:10:00;;;;;;;11.13;7.13;;;;;;;;;;5045806;28;20057;-57
2021/09/13 08:12:25;;;;;;;13.68;7.32;;;;;;;;;;5038198;28;20033;-57
2021/09/13 08:14:51;;;;;;;13.65;7.47;;;;;;;;;;5044566;28;20029;-57
2021/09/13 08:17:17;;;;;;;12.13;7.25;;;;;;;;;;5046008;28;20110;-56
2021/09/13 08:19:44;;;;;;;16.08;7.30;;;;;;;;;;5042331;28;20060;-57
2021/09/13 08:22:10;;;;;;;10.30;6.97;;;;;;;;;;5044518;28;20093;-57
2021/09/13 08:24:36;;;;;;;9.60;6.63;;;;;;;;;;5044506;28;20044;-57
2021/09/13 08:27:01;;;;;;;8.55;6.38;;;;;;;;;;5048117;28;20033;-57
2021/09/13 08:29:28;;;;;;;10.63;7.05;;;;;;;;;;5045207;28;20028;-57
2021/09/13 08:31:55;;;;;;;13.25;7.22;;;;;;;;;;5053937;28;20055;-57
2021/09/13 08:34:21;;;;;;;10.60;6.28;;;;;;;;;;5040899;28;20035;-57
2021/09/13 08:36:47;;;;;;;10.90;6.65;;;;;;;;;;5045974;28;20021;-57
2021/09/13 08:39:14;;;;;;;9.65;7.13;;;;;;;;;;5048983;28;21844;-57
2021/09/13 08:41:40;;;;;;;14.50;6.80;;;;;;;;;;5050120;28;20089;-57
2021/09/13 08:44:07;;;;;;;10.80;6.88;;;;;;;;;;5039091;28;20665;-57
2021/09/13 08:46:42;;;;;;;10.20;6.80;;;;;;;;;;5046700;28;20430;-57
2021/09/13 08:49:10;;;;;;;11.43;7.03;;;;;;;;;;5044045;28;20029;-58
2021/09/13 08:51:36;;;;;;;7.97;6.38;;;;;;;;;;5046605;28;20052;-57
2021/09/13 08:54:09;;;;;;;12.82;6.90;;;;;;;;;;5044732;28;20443;-57
2021/09/13 08:56:39;;;;;;;12.48;6.68;;;;;;;;;;5050269;28;20033;-57
2021/09/13 08:59:10;;;;;;;11.40;6.95;;;;;;;;;;5045128;28;20044;-57
2021/09/13 09:01:36;;;;;;;9.60;6.72;;;;;;;;;;5046486;28;20048;-57
2021/09/13 09:04:02;;;;;;;13.13;7.03;;;;;;;;;;5043028;28;20029;-57
2021/09/13 09:06:47;;;;;;;11.88;7.00;;;;;;;;;;5040979;28;20037;-57
2021/09/13 09:09:14;;;;;;;11.52;7.13;;;;;;;;;;5049734;28;20479;-57
2021/09/13 09:12:05;;;;;;;12.27;6.30;;;;;;;;;;5044008;28;20021;-57
2021/09/13 09:14:57;;;;;;;11.00;7.03;;;;;;;;;;5043150;28;20109;-57
2021/09/13 09:17:28;;;;;;;13.15;7.15;;;;;;;;;;5041120;28;20093;-57
2021/09/13 09:20:10;;;;;;;10.27;6.55;;;;;;;;;;5056878;28;20441;-57
2021/09/13 09:22:38;;;;;;;8.63;6.15;;;;;;;;;;5045784;28;20379;-57
2021/09/13 09:25:06;;;;;;;13.13;6.38;;;;;;;;;;5042050;28;20037;-57
2021/09/13 09:27:50;;;;;;;12.17;7.47;;;;;;;;;;5048677;28;20033;-57
2021/09/13 09:30:16;;;;;;;11.55;6.32;;;;;;;;;;5049008;28;20040;-57
2021/09/13 09:32:42;;;;;;;8.77;6.47;;;;;;;;;;5048396;28;20104;-57
2021/09/13 09:35:15;;;;;;;10.40;6.78;;;;;;;;;;5048327;28;20159;-57
2021/09/13 09:37:42;;;;;;;13.45;6.40;;;;;;;;;;5050817;28;20078;-56
2021/09/13 09:40:09;;;;;;;10.52;7.00;;;;;;;;;;5048710;28;20055;-57
2021/09/13 09:42:36;;;;;;;12.43;7.80;;;;;;;;;;5049819;28;20029;-56
2021/09/13 09:45:24;;;;;;;12.05;7.00;;;;;;;;;;5066828;28;20151;-56
2021/09/13 09:48:10;;;;;;;10.20;6.47;;;;;;;;;;5043681;28;20030;-56
2021/09/13 09:50:36;;;;;;;11.13;6.40;;;;;;;;;;5048635;28;20028;-56
2021/09/13 09:53:21;;;;;;;9.77;6.75;;;;;;;;;;5046437;28;20450;-57
2021/09/13 09:55:53;;;;;;;12.80;7.18;;;;;;;;;;5051390;28;20037;-56
2021/09/13 09:58:18;;;;;;;11.38;7.38;;;;;;;;;;5050356;28;20028;-56
2021/09/13 10:00:46;;;;;;;12.52;6.63;;;;;;;;;;5040507;28;20037;-57
2021/09/13 10:03:28;;;;;;;10.77;6.18;;;;;;;;;;5046796;28;20747;-56
2021/09/13 10:05:53;;;;;;;8.48;6.32;;;;;;;;;;5045206;28;20028;-56
2021/09/13 10:08:19;;;;;;;12.13;6.95;;;;;;;;;;5047960;28;20025;-57
2021/09/13 10:10:44;;;;;;;13.02;6.47;;;;;;;;;;5052496;28;20037;-56
2021/09/13 10:13:10;;;;;;;10.07;6.57;;;;;;;;;;5046916;28;20025;-57
2021/09/13 10:15:35;;;;;;;33.78;6.93;;;;;;;;;;5046781;28;20040;-57
2021/09/13 10:18:00;;;;;;;10.18;6.78;;;;;;;;;;5051122;28;20024;-57
2021/09/13 10:20:26;;;;;;;9.63;6.78;;;;;;;;;;5049527;28;20081;-56
2021/09/13 10:22:54;;;;;;;10.10;6.82;;;;;;;;;;5046725;28;20101;-57
2021/09/13 10:25:20;;;;;;;10.48;7.18;;;;;;;;;;5049569;28;20570;-58
2021/09/13 10:27:47;;;;;;;11.00;7.28;;;;;;;;;;5048735;28;20108;-57
2021/09/13 10:30:17;;;;;;;9.43;6.72;;;;;;;;;;5049540;28;20029;-58
2021/09/13 10:32:44;;;;;;;10.27;6.72;;;;;;;;;;5053752;28;20032;-57
2021/09/13 10:35:11;;;;;;;10.73;7.15;;;;;;;;;;5051039;28;20032;-58
2021/09/13 10:37:51;;;;;;;10.80;6.82;;;;;;;;;;5046444;28;20028;-57
2021/09/13 10:40:16;;;;;;;12.68;7.78;;;;;;;;;;5047446;28;20032;-58
2021/09/13 10:42:43;;;;;;;14.05;7.28;;;;;;;;;;5054022;28;20033;-57
2021/09/13 10:45:20;;;;;;;13.10;7.65;;;;;;;;;;5051556;28;20025;-58
2021/09/13 10:47:50;;;;;;;13.00;8.00;;;;;;;;;;5044367;28;20059;-58
2021/09/13 10:50:26;;;;;;;11.18;7.55;;;;;;;;;;5051564;28;20032;-58
2021/09/13 10:52:56;;;;;;;11.60;7.15;;;;;;;;;;5044194;28;20056;-58
2021/09/13 10:55:29;;;;;;;10.48;7.07;;;;;;;;;;5046991;28;20503;-58
2021/09/13 10:58:10;;;;;;;13.18;7.10;;;;;;;;;;5052837;28;20025;-58
2021/09/13 11:00:42;;;;;;;9.27;7.22;;;;;;;;;;5053072;28;20507;-58
2021/09/13 11:03:32;;;;;;;11.82;7.22;;;;;;;;;;5052898;28;20032;-58
2021/09/13 11:06:13;;;;;;;8.70;6.38;;;;;;;;;;5046691;28;20028;-58
2021/09/13 11:08:49;;;;;;;11.82;7.50;;;;;;;;;;5046560;28;20494;-58
2021/09/13 11:11:19;;;;;;;11.85;7.05;;;;;;;;;;5048653;28;20017;-58
2021/09/13 11:14:00;;;;;;;11.02;6.78;;;;;;;;;;5050381;28;20029;-58
2021/09/13 11:16:27;;;;;;;13.18;7.45;;;;;;;;;;5050112;28;20033;-58
2021/09/13 11:18:53;;;;;;;7.43;6.35;;;;;;;;;;5045573;28;20033;-58
2021/09/13 11:21:22;;;;;;;7.88;6.00;;;;;;;;;;5043945;28;20141;-58
2021/09/13 11:23:56;;;;;;;8.65;6.20;;;;;;;;;;5045773;28;20029;-58
2021/09/13 11:26:40;;;;;;;11.77;7.43;;;;;;;;;;5042758;28;20028;-58
2021/09/13 11:29:08;;;;;;;10.63;6.90;;;;;;;;;;5047788;28;20305;-58
2021/09/13 11:32:04;;;;;;;9.38;6.40;;;;;;;;;;5043876;28;20029;-58
2021/09/13 11:34:47;;;;;;;10.02;7.40;;;;;;;;;;5032317;28;20037;-58
2021/09/13 11:37:23;;;;;;;9.85;6.03;;;;;;;;;;5040744;28;20025;-58
2021/09/13 11:39:50;;;;;;;9.95;6.13;;;;;;;;;;5049160;28;20040;-58
2021/09/13 11:42:19;;;;;;;7.95;6.57;;;;;;;;;;5051745;28;20102;-58
2021/09/13 11:44:47;;;;;;;9.32;6.20;;;;;;;;;;5045580;28;21434;-58
2021/09/13 11:47:19;;;;;;;9.27;6.17;;;;;;;;;;5042796;28;20037;-59
2021/09/13 11:49:47;;;;;;;8.05;6.60;;;;;;;;;;5043401;28;20033;-58
2021/09/13 11:52:14;;;;;;;10.25;6.20;;;;;;;;;;5046004;28;20028;-58
2021/09/13 11:55:04;;;;;;;7.00;5.93;;;;;;;;;;5042088;28;20029;-58
2021/09/13 11:57:33;;;;;;;6.65;5.40;;;;;;;;;;5047464;28;20031;-58
2021/09/13 12:00:00;;;;;;;7.78;5.60;;;;;;;;;;5048522;28;20342;-58
2021/09/13 12:02:27;;;;;;;6.32;5.00;;;;;;;;;;5047215;28;20491;-58
2021/09/13 12:04:53;;;;;;;6.93;5.80;;;;;;;;;;5043685;28;20021;-58
2021/09/13 12:07:19;;;;;;;8.20;5.78;;;;;;;;;;5045233;28;20101;-59
2021/09/13 12:09:50;;;;;;;9.48;5.90;;;;;;;;;;5047395;28;20033;-58
2021/09/13 12:12:19;;;;;;;9.15;5.50;;;;;;;;;;5045516;28;20071;-58
2021/09/13 12:14:46;;;;;;;5.97;5.38;;;;;;;;;;5044657;28;20020;-58
2021/09/13 12:17:19;;;;;;;10.13;5.75;;;;;;;;;;5045261;28;20035;-58
2021/09/13 12:19:48;;;;;;;7.05;5.70;;;;;;;;;;5041127;28;20033;-58
2021/09/13 12:22:15;;;;;;;9.40;6.13;;;;;;;;;;5045790;28;20072;-58
2021/09/13 12:24:43;;;;;;;9.88;6.25;;;;;;;;;;5046484;28;20032;-58
2021/09/13 12:27:18;;;;;;;10.10;5.93;;;;;;;;;;5045226;28;20050;-57
2021/09/13 12:29:58;;;;;;;7.82;6.78;;;;;;;;;;5044052;28;20036;-57
2021/09/13 12:32:35;;;;;;;16.10;6.53;;;;;;;;;;5044696;28;20037;-58
2021/09/13 12:35:06;;;;;;;7.65;6.85;;;;;;;;;;5045021;28;20399;-57
2021/09/13 12:37:37;;;;;;;11.52;6.07;;;;;;;;;;5043603;28;20376;-57
2021/09/13 12:40:14;;;;;;;8.23;6.00;;;;;;;;;;5049193;28;20566;-58
2021/09/13 12:42:52;;;;;;;9.80;7.28;;;;;;;;;;5046742;28;20567;-58
2021/09/13 12:45:18;;;;;;;8.32;6.10;;;;;;;;;;5043423;28;20020;-58
2021/09/13 12:47:55;;;;;;;9.73;5.85;;;;;;;;;;5043629;28;20032;-58
2021/09/13 12:50:37;;;;;;;8.82;5.90;;;;;;;;;;5044404;28;20723;-58
2021/09/13 12:53:18;;;;;;;10.32;6.28;;;;;;;;;;5038035;28;20111;-57
2021/09/13 12:55:44;;;;;;;6.70;5.72;;;;;;;;;;5045798;28;20044;-57
2021/09/13 12:58:29;;;;;;;7.28;5.72;;;;;;;;;;5043206;28;20423;-58
2021/09/13 13:01:02;;;;;;;6.95;5.10;;;;;;;;;;5042952;28;20029;-57
2021/09/13 13:03:29;;;;;;;7.93;5.75;;;;;;;;;;5053967;28;20028;-57
2021/09/13 13:05:55;;;;;;;7.53;5.35;;;;;;;;;;5046674;28;20032;-58
2021/09/13 13:08:23;;;;;;;6.53;5.63;;;;;;;;;;5046962;28;20033;-58
2021/09/13 13:10:49;;;;;;;7.78;5.75;;;;;;;;;;5044702;28;20017;-57
2021/09/13 13:13:14;;;;;;;12.23;6.13;;;;;;;;;;5045544;28;20020;-58
2021/09/13 13:15:40;;;;;;;7.60;6.10;;;;;;;;;;5046040;28;20086;-57
2021/09/13 13:18:17;;;;;;;6.50;5.70;;;;;;;;;;5048756;28;20509;-58
2021/09/13 13:20:47;;;;;;;7.55;5.25;;;;;;;;;;5047274;28;20033;-58
2021/09/13 13:23:13;;;;;;;7.20;5.43;;;;;;;;;;5044049;28;20396;-57
2021/09/13 13:25:41;;;;;;;8.25;5.63;;;;;;;;;;5046227;28;20098;-58
2021/09/13 13:28:06;;;;;;;7.75;5.15;;;;;;;;;;5045791;28;20020;-58
2021/09/13 13:30:32;;;;;;;6.97;5.45;;;;;;;;;;5044924;28;20495;-58
2021/09/13 13:32:57;;;;;;;8.13;5.38;;;;;;;;;;5044484;28;20538;-58
2021/09/13 13:35:23;;;;;;;6.53;5.40;;;;;;;;;;5040740;28;20033;-58
2021/09/13 13:37:48;;;;;;;7.40;5.32;;;;;;;;;;5046249;28;20043;-58
2021/09/13 13:40:14;;;;;;;6.57;4.95;;;;;;;;;;5043339;28;20029;-57
2021/09/13 13:42:39;;;;;;;6.85;5.22;;;;;;;;;;5048051;28;20028;-58
2021/09/13 13:45:06;;;;;;;4.95;4.45;;;;;;;;;;5045127;28;20033;-58
2021/09/13 13:47:32;;;;;;;6.10;5.15;;;;;;;;;;5043031;28;20036;-58
2021/09/13 13:49:58;;;;;;;9.80;5.10;;;;;;;;;;5046078;28;20032;-58
2021/09/13 13:52:23;;;;;;;8.02;5.30;;;;;;;;;;5041548;28;20029;-58
2021/09/13 13:54:49;;;;;;;7.75;4.90;;;;;;;;;;5041074;28;20025;-58
2021/09/13 13:57:18;;;;;;;7.45;4.88;;;;;;;;;;5041264;28;20146;-57
2021/09/13 13:59:44;;;;;;;9.48;5.13;;;;;;;;;;5042647;28;20505;-57
2021/09/13 14:02:10;;;;;;;7.80;4.93;;;;;;;;;;5044791;28;20116;-57
2021/09/13 14:04:35;;;;;;;5.45;4.63;;;;;;;;;;5046220;28;20096;-57
2021/09/13 14:07:01;;;;;;;7.28;4.95;;;;;;;;;;5045656;28;20373;-57
2021/09/13 14:09:27;;;;;;;6.07;4.85;;;;;;;;;;5046192;28;20032;-57
2021/09/13 14:11:53;;;;;;;11.35;5.55;;;;;;;;;;5046462;28;20017;-57
2021/09/13 14:14:22;;;;;;;8.00;4.75;;;;;;;;;;5050606;28;20439;-57
2021/09/13 14:16:47;;;;;;;6.13;4.47;;;;;;;;;;5049404;28;20049;-57
2021/09/13 14:19:13;;;;;;;8.60;4.63;;;;;;;;;;5051322;28;20043;-57
2021/09/13 14:21:38;;;;;;;7.85;5.13;;;;;;;;;;5050178;28;20017;-58
2021/09/13 14:24:04;;;;;;;53.20;14.55;;;;;;;;;;5053088;28;20029;-57
2021/09/13 14:26:29;;;;;;;17.33;7.72;;;;;;;;;;5049207;28;20025;-57
2021/09/13 14:28:55;;;;;;;25.67;9.43;;;;;;;;;;5050227;28;20033;-57
2021/09/13 14:31:20;;;;;;;10.18;5.90;;;;;;;;;;5050777;28;20777;-57
2021/09/13 14:33:45;;;;;;;10.30;5.85;;;;;;;;;;5051800;28;20427;-58
2021/09/13 14:36:11;;;;;;;6.97;5.18;;;;;;;;;;5054134;28;20029;-58
2021/09/13 14:38:36;;;;;;;7.55;5.22;;;;;;;;;;5049239;28;20021;-57
2021/09/13 14:41:02;;;;;;;6.63;5.22;;;;;;;;;;5050484;28;20437;-59
2021/09/13 14:43:27;;;;;;;7.28;5.55;;;;;;;;;;5051526;28;20120;-59
2021/09/13 14:45:53;;;;;;;10.02;5.03;;;;;;;;;;5042807;28;20426;-59